sensor_id;sensor_type;location;lat;lon;timestamp;temperature;humidity
29775;DHT22;16676;51.202;6.774;2023-04-28T00:01:25;19.40;58.30
29775;DHT22;16676;51.202;6.774;2023-04-28T00:05:28;19.40;59.10
29775;DHT22;16676;51.202;6.774;2023-04-28T00:09:30;19.30;58.30
29775;DHT22;16676;51.202;6.774;2023-04-28T00:13:32;19.40;58.30
29775;DHT22;16676;51.202;6.774;2023-04-28T00:17:34;19.30;59.30
29775;DHT22;16676;51.202;6.774;2023-04-28T00:21:37;19.40;58.50
29775;DHT22;16676;51.202;6.774;2023-04-28T00:25:39;19.40;59.00
29775;DHT22;16676;51.202;6.774;2023-04-28T00:29:41;19.40;58.80
29775;DHT22;16676;51.202;6.774;2023-04-28T00:33:43;19.30;58.50
29775;DHT22;16676;51.202;6.774;2023-04-28T00:37:47;19.30;58.80
29775;DHT22;16676;51.202;6.774;2023-04-28T00:41:49;19.30;58.90
29775;DHT22;16676;51.202;6.774;2023-04-28T00:45:51;19.30;58.80
29775;DHT22;16676;51.202;6.774;2023-04-28T00:49:54;19.30;59.00
29775;DHT22;16676;51.202;6.774;2023-04-28T00:53:57;19.30;59.00
29775;DHT22;16676;51.202;6.774;2023-04-28T00:58:00;19.30;59.10
29775;DHT22;16676;51.202;6.774;2023-04-28T01:02:02;19.30;59.00
29775;DHT22;16676;51.202;6.774;2023-04-28T01:06:07;19.30;59.00
29775;DHT22;16676;51.202;6.774;2023-04-28T01:10:11;19.30;59.10
29775;DHT22;16676;51.202;6.774;2023-04-28T01:14:13;19.30;59.20
29775;DHT22;16676;51.202;6.774;2023-04-28T01:18:15;19.30;59.40
29775;DHT22;16676;51.202;6.774;2023-04-28T01:22:17;19.30;59.30
29775;DHT22;16676;51.202;6.774;2023-04-28T01:26:20;19.30;59.30
29775;DHT22;16676;51.202;6.774;2023-04-28T01:30:23;19.30;59.30
29775;DHT22;16676;51.202;6.774;2023-04-28T01:34:24;19.30;59.40
29775;DHT22;16676;51.202;6.774;2023-04-28T01:38:27;19.30;59.30
29775;DHT22;16676;51.202;6.774;2023-04-28T01:42:30;19.30;59.30
29775;DHT22;16676;51.202;6.774;2023-04-28T01:46:32;19.30;59.40
29775;DHT22;16676;51.202;6.774;2023-04-28T01:50:34;19.30;59.40
29775;DHT22;16676;51.202;6.774;2023-04-28T01:54:36;19.20;59.40
29775;DHT22;16676;51.202;6.774;2023-04-28T01:58:39;19.20;59.60
29775;DHT22;16676;51.202;6.774;2023-04-28T02:02:41;19.20;59.60
29775;DHT22;16676;51.202;6.774;2023-04-28T02:06:43;19.20;59.50
29775;DHT22;16676;51.202;6.774;2023-04-28T02:10:44;19.20;59.80
29775;DHT22;16676;51.202;6.774;2023-04-28T02:14:48;19.20;59.80
29775;DHT22;16676;51.202;6.774;2023-04-28T02:18:50;19.20;59.80
29775;DHT22;16676;51.202;6.774;2023-04-28T02:22:52;19.20;59.90
29775;DHT22;16676;51.202;6.774;2023-04-28T02:26:54;19.20;60.20
29775;DHT22;16676;51.202;6.774;2023-04-28T02:31:04;19.20;60.00
29775;DHT22;16676;51.202;6.774;2023-04-28T02:35:07;19.20;60.00
29775;DHT22;16676;51.202;6.774;2023-04-28T02:39:09;19.20;60.00
29775;DHT22;16676;51.202;6.774;2023-04-28T02:43:11;19.20;60.00
29775;DHT22;16676;51.202;6.774;2023-04-28T02:47:14;19.20;60.00
29775;DHT22;16676;51.202;6.774;2023-04-28T02:51:16;19.20;60.20
29775;DHT22;16676;51.202;6.774;2023-04-28T02:55:18;19.20;60.10
29775;DHT22;16676;51.202;6.774;2023-04-28T02:59:24;19.20;60.10
29775;DHT22;16676;51.202;6.774;2023-04-28T03:03:28;19.10;60.10
29775;DHT22;16676;51.202;6.774;2023-04-28T03:07:30;19.20;60.20
29775;DHT22;16676;51.202;6.774;2023-04-28T03:11:32;19.20;60.30
29775;DHT22;16676;51.202;6.774;2023-04-28T03:15:34;19.10;60.30
29775;DHT22;16676;51.202;6.774;2023-04-28T03:19:37;19.10;60.40
29775;DHT22;16676;51.202;6.774;2023-04-28T03:23:39;19.10;60.30
29775;DHT22;16676;51.202;6.774;2023-04-28T03:27:41;19.10;60.30
29775;DHT22;16676;51.202;6.774;2023-04-28T03:31:43;19.10;60.60
29775;DHT22;16676;51.202;6.774;2023-04-28T03:35:46;19.10;60.70
29775;DHT22;16676;51.202;6.774;2023-04-28T03:39:48;19.10;60.70
29775;DHT22;16676;51.202;6.774;2023-04-28T03:43:50;19.10;60.90
29775;DHT22;16676;51.202;6.774;2023-04-28T03:47:53;19.10;61.00
29775;DHT22;16676;51.202;6.774;2023-04-28T03:51:56;19.10;60.90
29775;DHT22;16676;51.202;6.774;2023-04-28T03:55:58;19.10;60.90
29775;DHT22;16676;51.202;6.774;2023-04-28T04:00:00;19.10;61.30
29775;DHT22;16676;51.202;6.774;2023-04-28T04:04:02;19.10;61.50
29775;DHT22;16676;51.202;6.774;2023-04-28T04:08:05;19.10;61.50
29775;DHT22;16676;51.202;6.774;2023-04-28T04:12:07;19.10;61.30
29775;DHT22;16676;51.202;6.774;2023-04-28T04:16:09;19.10;61.60
29775;DHT22;16676;51.202;6.774;2023-04-28T04:20:11;19.00;61.50
29775;DHT22;16676;51.202;6.774;2023-04-28T04:24:15;19.00;61.70
29775;DHT22;16676;51.202;6.774;2023-04-28T04:28:17;19.00;61.90
29775;DHT22;16676;51.202;6.774;2023-04-28T04:32:18;19.00;61.90
29775;DHT22;16676;51.202;6.774;2023-04-28T04:36:21;19.00;62.20
29775;DHT22;16676;51.202;6.774;2023-04-28T04:40:24;19.00;62.10
29775;DHT22;16676;51.202;6.774;2023-04-28T04:44:26;19.00;61.90
29775;DHT22;16676;51.202;6.774;2023-04-28T04:48:28;19.00;61.90
29775;DHT22;16676;51.202;6.774;2023-04-28T04:52:30;19.00;61.60
29775;DHT22;16676;51.202;6.774;2023-04-28T04:56:33;19.10;62.60
29775;DHT22;16676;51.202;6.774;2023-04-28T05:00:35;19.00;62.10
29775;DHT22;16676;51.202;6.774;2023-04-28T05:04:37;18.90;61.10
29775;DHT22;16676;51.202;6.774;2023-04-28T05:08:39;18.70;61.20
29775;DHT22;16676;51.202;6.774;2023-04-28T05:12:42;18.60;62.20
29775;DHT22;16676;51.202;6.774;2023-04-28T05:16:45;18.40;61.30
29775;DHT22;16676;51.202;6.774;2023-04-28T05:20:47;18.30;61.20
29775;DHT22;16676;51.202;6.774;2023-04-28T05:24:49;18.30;61.60
29775;DHT22;16676;51.202;6.774;2023-04-28T05:28:52;18.30;60.90
29775;DHT22;16676;51.202;6.774;2023-04-28T05:32:54;18.20;61.00
29775;DHT22;16676;51.202;6.774;2023-04-28T05:36:56;18.20;60.80
29775;DHT22;16676;51.202;6.774;2023-04-28T05:40:59;18.10;60.80
29775;DHT22;16676;51.202;6.774;2023-04-28T05:45:04;18.10;60.70
29775;DHT22;16676;51.202;6.774;2023-04-28T05:49:07;18.00;60.90
29775;DHT22;16676;51.202;6.774;2023-04-28T05:53:09;17.90;61.20
29775;DHT22;16676;51.202;6.774;2023-04-28T05:57:11;17.90;60.70
29775;DHT22;16676;51.202;6.774;2023-04-28T06:01:14;17.80;61.00
29775;DHT22;16676;51.202;6.774;2023-04-28T06:05:17;17.70;61.90
29775;DHT22;16676;51.202;6.774;2023-04-28T06:09:18;17.70;61.20
29775;DHT22;16676;51.202;6.774;2023-04-28T06:13:20;17.60;60.90
29775;DHT22;16676;51.202;6.774;2023-04-28T06:17:24;17.50;60.90
29775;DHT22;16676;51.202;6.774;2023-04-28T06:21:26;17.50;61.10
29775;DHT22;16676;51.202;6.774;2023-04-28T06:25:28;17.50;61.10
29775;DHT22;16676;51.202;6.774;2023-04-28T06:29:30;17.40;61.20
29775;DHT22;16676;51.202;6.774;2023-04-28T06:33:33;17.40;61.40
29775;DHT22;16676;51.202;6.774;2023-04-28T06:37:35;17.30;61.60
29775;DHT22;16676;51.202;6.774;2023-04-28T06:41:37;17.50;62.10
29775;DHT22;16676;51.202;6.774;2023-04-28T06:45:39;17.70;61.50
29775;DHT22;16676;51.202;6.774;2023-04-28T06:49:43;17.90;61.00
29775;DHT22;16676;51.202;6.774;2023-04-28T06:53:46;18.10;60.40
29775;DHT22;16676;51.202;6.774;2023-04-28T06:57:50;18.20;59.70
29775;DHT22;16676;51.202;6.774;2023-04-28T07:01:52;18.30;59.80
29775;DHT22;16676;51.202;6.774;2023-04-28T07:05:56;18.30;59.60
29775;DHT22;16676;51.202;6.774;2023-04-28T07:09:58;18.40;59.40
29775;DHT22;16676;51.202;6.774;2023-04-28T07:14:00;18.40;59.10
29775;DHT22;16676;51.202;6.774;2023-04-28T07:18:02;18.50;58.90
29775;DHT22;16676;51.202;6.774;2023-04-28T07:22:06;18.50;58.90
29775;DHT22;16676;51.202;6.774;2023-04-28T07:26:08;18.50;58.90
29775;DHT22;16676;51.202;6.774;2023-04-28T07:30:10;18.50;58.80
29775;DHT22;16676;51.202;6.774;2023-04-28T07:34:12;18.50;58.60
29775;DHT22;16676;51.202;6.774;2023-04-28T07:38:16;18.60;58.70
29775;DHT22;16676;51.202;6.774;2023-04-28T07:42:19;18.60;58.60
29775;DHT22;16676;51.202;6.774;2023-04-28T07:46:21;18.70;58.40
29775;DHT22;16676;51.202;6.774;2023-04-28T07:50:23;18.70;58.40
29775;DHT22;16676;51.202;6.774;2023-04-28T07:54:26;18.70;59.10
29775;DHT22;16676;51.202;6.774;2023-04-28T07:58:28;18.70;58.70
29775;DHT22;16676;51.202;6.774;2023-04-28T08:02:31;18.70;58.70
29775;DHT22;16676;51.202;6.774;2023-04-28T08:06:33;18.70;58.70
29775;DHT22;16676;51.202;6.774;2023-04-28T08:10:37;18.80;58.60
29775;DHT22;16676;51.202;6.774;2023-04-28T08:14:41;18.80;58.70
29775;DHT22;16676;51.202;6.774;2023-04-28T08:18:43;18.90;58.40
29775;DHT22;16676;51.202;6.774;2023-04-28T08:22:45;18.90;58.50
29775;DHT22;16676;51.202;6.774;2023-04-28T08:26:48;18.90;58.60
29775;DHT22;16676;51.202;6.774;2023-04-28T08:30:50;18.90;58.40
29775;DHT22;16676;51.202;6.774;2023-04-28T08:34:53;18.90;58.50
29775;DHT22;16676;51.202;6.774;2023-04-28T08:38:54;18.90;58.50
29775;DHT22;16676;51.202;6.774;2023-04-28T08:43:00;18.90;58.40
29775;DHT22;16676;51.202;6.774;2023-04-28T08:47:03;19.00;58.60
29775;DHT22;16676;51.202;6.774;2023-04-28T08:51:06;18.90;58.60
29775;DHT22;16676;51.202;6.774;2023-04-28T08:55:10;18.90;59.30
29775;DHT22;16676;51.202;6.774;2023-04-28T08:59:13;18.90;59.20
29775;DHT22;16676;51.202;6.774;2023-04-28T09:03:17;19.00;60.70
29775;DHT22;16676;51.202;6.774;2023-04-28T09:07:19;19.00;60.90
29775;DHT22;16676;51.202;6.774;2023-04-28T09:11:21;19.10;60.90
29775;DHT22;16676;51.202;6.774;2023-04-28T09:15:27;19.20;60.90
29775;DHT22;16676;51.202;6.774;2023-04-28T09:19:32;19.20;60.80
29775;DHT22;16676;51.202;6.774;2023-04-28T09:23:46;19.30;60.80
29775;DHT22;16676;51.202;6.774;2023-04-28T09:27:48;19.30;60.60
29775;DHT22;16676;51.202;6.774;2023-04-28T09:31:52;19.30;60.80
29775;DHT22;16676;51.202;6.774;2023-04-28T09:35:54;19.30;60.90
29775;DHT22;16676;51.202;6.774;2023-04-28T09:39:57;19.40;60.80
29775;DHT22;16676;51.202;6.774;2023-04-28T09:44:09;19.50;61.10
29775;DHT22;16676;51.202;6.774;2023-04-28T09:48:12;19.50;61.00
29775;DHT22;16676;51.202;6.774;2023-04-28T09:52:14;19.50;60.80
29775;DHT22;16676;51.202;6.774;2023-04-28T09:56:16;19.50;61.10
29775;DHT22;16676;51.202;6.774;2023-04-28T10:00:21;19.50;61.20
29775;DHT22;16676;51.202;6.774;2023-04-28T10:04:25;19.50;61.40
29775;DHT22;16676;51.202;6.774;2023-04-28T10:08:30;19.60;61.30
29775;DHT22;16676;51.202;6.774;2023-04-28T10:12:33;19.60;61.20
29775;DHT22;16676;51.202;6.774;2023-04-28T10:16:38;19.60;61.30
29775;DHT22;16676;51.202;6.774;2023-04-28T10:20:43;19.60;61.30
29775;DHT22;16676;51.202;6.774;2023-04-28T10:24:58;19.60;61.60
29775;DHT22;16676;51.202;6.774;2023-04-28T10:29:04;19.60;61.20
29775;DHT22;16676;51.202;6.774;2023-04-28T10:33:22;19.60;61.30
29775;DHT22;16676;51.202;6.774;2023-04-28T10:42:03;19.60;61.50
29775;DHT22;16676;51.202;6.774;2023-04-28T10:46:08;19.60;61.60
29775;DHT22;16676;51.202;6.774;2023-04-28T10:50:11;19.70;61.70
29775;DHT22;16676;51.202;6.774;2023-04-28T10:54:14;19.70;61.60
29775;DHT22;16676;51.202;6.774;2023-04-28T10:58:34;19.80;61.60
29775;DHT22;16676;51.202;6.774;2023-04-28T11:02:40;19.80;61.20
29775;DHT22;16676;51.202;6.774;2023-04-28T11:06:43;19.70;61.80
29775;DHT22;16676;51.202;6.774;2023-04-28T11:11:10;19.70;62.10
29775;DHT22;16676;51.202;6.774;2023-04-28T11:15:14;19.80;62.00
29775;DHT22;16676;51.202;6.774;2023-04-28T11:19:18;19.90;61.90
29775;DHT22;16676;51.202;6.774;2023-04-28T11:23:21;19.90;61.90
29775;DHT22;16676;51.202;6.774;2023-04-28T11:27:24;19.90;62.00
29775;DHT22;16676;51.202;6.774;2023-04-28T11:31:27;19.90;62.00
29775;DHT22;16676;51.202;6.774;2023-04-28T11:35:40;20.00;62.00
29775;DHT22;16676;51.202;6.774;2023-04-28T11:39:42;20.00;61.80
29775;DHT22;16676;51.202;6.774;2023-04-28T11:43:44;20.10;61.70
29775;DHT22;16676;51.202;6.774;2023-04-28T11:47:47;20.10;61.60
29775;DHT22;16676;51.202;6.774;2023-04-28T11:51:50;20.20;61.50
29775;DHT22;16676;51.202;6.774;2023-04-28T11:56:04;20.20;61.70
29775;DHT22;16676;51.202;6.774;2023-04-28T12:00:12;20.20;61.70
29775;DHT22;16676;51.202;6.774;2023-04-28T12:04:31;20.20;61.80
29775;DHT22;16676;51.202;6.774;2023-04-28T12:08:35;20.20;62.00
29775;DHT22;16676;51.202;6.774;2023-04-28T12:12:37;20.30;61.90
29775;DHT22;16676;51.202;6.774;2023-04-28T12:16:41;20.20;62.20
29775;DHT22;16676;51.202;6.774;2023-04-28T12:20:49;20.30;62.00
29775;DHT22;16676;51.202;6.774;2023-04-28T12:25:04;20.30;62.20
29775;DHT22;16676;51.202;6.774;2023-04-28T12:29:07;20.30;62.00
29775;DHT22;16676;51.202;6.774;2023-04-28T12:33:21;20.40;62.00
29775;DHT22;16676;51.202;6.774;2023-04-28T12:37:25;20.40;61.90
29775;DHT22;16676;51.202;6.774;2023-04-28T12:41:28;20.40;61.90
29775;DHT22;16676;51.202;6.774;2023-04-28T12:45:30;20.50;61.80
29775;DHT22;16676;51.202;6.774;2023-04-28T12:49:33;20.40;61.80
29775;DHT22;16676;51.202;6.774;2023-04-28T12:53:36;20.30;62.00
29775;DHT22;16676;51.202;6.774;2023-04-28T12:57:38;20.30;61.90
29775;DHT22;16676;51.202;6.774;2023-04-28T13:01:40;20.20;62.10
29775;DHT22;16676;51.202;6.774;2023-04-28T13:05:42;20.20;62.20
29775;DHT22;16676;51.202;6.774;2023-04-28T13:09:46;20.20;62.10
29775;DHT22;16676;51.202;6.774;2023-04-28T13:13:48;20.40;62.20
29775;DHT22;16676;51.202;6.774;2023-04-28T13:17:50;20.50;61.20
29775;DHT22;16676;51.202;6.774;2023-04-28T13:21:52;20.60;60.90
29775;DHT22;16676;51.202;6.774;2023-04-28T13:25:56;20.60;60.60
29775;DHT22;16676;51.202;6.774;2023-04-28T13:29:58;20.60;60.50
29775;DHT22;16676;51.202;6.774;2023-04-28T13:34:00;20.60;60.20
29775;DHT22;16676;51.202;6.774;2023-04-28T13:38:03;20.60;60.20
29775;DHT22;16676;51.202;6.774;2023-04-28T13:42:07;20.60;60.00
29775;DHT22;16676;51.202;6.774;2023-04-28T13:46:09;20.70;59.90
29775;DHT22;16676;51.202;6.774;2023-04-28T13:50:11;20.70;59.90
29775;DHT22;16676;51.202;6.774;2023-04-28T13:54:13;20.70;60.10
29775;DHT22;16676;51.202;6.774;2023-04-28T13:58:17;20.60;61.40
29775;DHT22;16676;51.202;6.774;2023-04-28T14:02:19;20.70;61.10
29775;DHT22;16676;51.202;6.774;2023-04-28T14:06:21;20.70;61.20
29775;DHT22;16676;51.202;6.774;2023-04-28T14:10:23;20.80;61.30
29775;DHT22;16676;51.202;6.774;2023-04-28T14:14:27;20.90;61.20
29775;DHT22;16676;51.202;6.774;2023-04-28T14:18:29;20.90;61.30
29775;DHT22;16676;51.202;6.774;2023-04-28T14:22:33;20.90;61.40
29775;DHT22;16676;51.202;6.774;2023-04-28T14:26:35;20.90;61.70
29775;DHT22;16676;51.202;6.774;2023-04-28T14:30:38;20.90;61.90
29775;DHT22;16676;51.202;6.774;2023-04-28T14:34:41;21.00;61.90
29775;DHT22;16676;51.202;6.774;2023-04-28T14:38:43;21.00;61.70
29775;DHT22;16676;51.202;6.774;2023-04-28T14:42:45;21.00;62.00
29775;DHT22;16676;51.202;6.774;2023-04-28T14:46:48;21.10;61.70
29775;DHT22;16676;51.202;6.774;2023-04-28T14:50:51;21.20;61.80
29775;DHT22;16676;51.202;6.774;2023-04-28T14:54:53;21.20;61.80
29775;DHT22;16676;51.202;6.774;2023-04-28T14:58:55;21.20;61.80
29775;DHT22;16676;51.202;6.774;2023-04-28T15:02:58;21.20;61.90
29775;DHT22;16676;51.202;6.774;2023-04-28T15:07:00;21.10;61.10
29775;DHT22;16676;51.202;6.774;2023-04-28T15:11:03;21.00;62.00
29775;DHT22;16676;51.202;6.774;2023-04-28T15:15:05;20.90;62.30
29775;DHT22;16676;51.202;6.774;2023-04-28T15:19:09;20.80;63.00
29775;DHT22;16676;51.202;6.774;2023-04-28T15:23:11;20.70;63.70
29775;DHT22;16676;51.202;6.774;2023-04-28T15:27:13;20.80;63.50
29775;DHT22;16676;51.202;6.774;2023-04-28T15:31:15;20.80;64.20
29775;DHT22;16676;51.202;6.774;2023-04-28T15:35:19;20.70;63.10
29775;DHT22;16676;51.202;6.774;2023-04-28T15:39:21;20.60;64.00
29775;DHT22;16676;51.202;6.774;2023-04-28T15:43:24;20.50;64.70
29775;DHT22;16676;51.202;6.774;2023-04-28T15:47:26;20.40;65.00
29775;DHT22;16676;51.202;6.774;2023-04-28T15:51:31;20.40;65.40
29775;DHT22;16676;51.202;6.774;2023-04-28T15:55:33;20.50;64.10
29775;DHT22;16676;51.202;6.774;2023-04-28T15:59:36;20.50;64.60
29775;DHT22;16676;51.202;6.774;2023-04-28T16:03:37;20.60;63.70
29775;DHT22;16676;51.202;6.774;2023-04-28T16:07:41;20.60;64.70
29775;DHT22;16676;51.202;6.774;2023-04-28T16:11:44;20.60;64.10
29775;DHT22;16676;51.202;6.774;2023-04-28T16:15:46;20.60;64.00
29775;DHT22;16676;51.202;6.774;2023-04-28T16:19:50;20.50;63.90
29775;DHT22;16676;51.202;6.774;2023-04-28T16:23:54;20.50;63.70
29775;DHT22;16676;51.202;6.774;2023-04-28T16:27:56;20.50;63.80
29775;DHT22;16676;51.202;6.774;2023-04-28T16:31:58;20.50;63.90
29775;DHT22;16676;51.202;6.774;2023-04-28T16:35:59;20.40;63.80
29775;DHT22;16676;51.202;6.774;2023-04-28T16:40:03;20.40;64.10
29775;DHT22;16676;51.202;6.774;2023-04-28T16:44:06;20.40;64.40
29775;DHT22;16676;51.202;6.774;2023-04-28T16:48:08;20.40;64.90
29775;DHT22;16676;51.202;6.774;2023-04-28T16:52:10;20.40;64.40
29775;DHT22;16676;51.202;6.774;2023-04-28T16:56:13;20.40;65.30
29775;DHT22;16676;51.202;6.774;2023-04-28T17:00:16;20.40;65.20
29775;DHT22;16676;51.202;6.774;2023-04-28T17:04:18;20.30;65.00
29775;DHT22;16676;51.202;6.774;2023-04-28T17:08:20;20.30;64.60
29775;DHT22;16676;51.202;6.774;2023-04-28T17:12:23;20.40;65.00
29775;DHT22;16676;51.202;6.774;2023-04-28T17:16:29;20.40;64.90
29775;DHT22;16676;51.202;6.774;2023-04-28T17:20:32;20.40;65.20
29775;DHT22;16676;51.202;6.774;2023-04-28T17:24:34;20.40;65.10
29775;DHT22;16676;51.202;6.774;2023-04-28T17:28:37;20.40;65.30
29775;DHT22;16676;51.202;6.774;2023-04-28T17:32:40;20.40;65.60
29775;DHT22;16676;51.202;6.774;2023-04-28T17:36:42;20.40;66.70
29775;DHT22;16676;51.202;6.774;2023-04-28T17:40:44;20.40;65.90
29775;DHT22;16676;51.202;6.774;2023-04-28T17:44:49;20.40;66.30
29775;DHT22;16676;51.202;6.774;2023-04-28T17:48:51;20.30;67.60
29775;DHT22;16676;51.202;6.774;2023-04-28T17:52:53;20.40;67.80
29775;DHT22;16676;51.202;6.774;2023-04-28T17:56:55;20.30;68.20
29775;DHT22;16676;51.202;6.774;2023-04-28T18:01:02;20.30;68.10
29775;DHT22;16676;51.202;6.774;2023-04-28T18:05:04;20.30;68.00
29775;DHT22;16676;51.202;6.774;2023-04-28T18:09:06;20.30;68.90
29775;DHT22;16676;51.202;6.774;2023-04-28T18:13:08;20.30;68.80
29775;DHT22;16676;51.202;6.774;2023-04-28T18:17:12;20.30;67.80
29775;DHT22;16676;51.202;6.774;2023-04-28T18:21:13;20.20;68.50
29775;DHT22;16676;51.202;6.774;2023-04-28T18:25:16;20.20;68.00
29775;DHT22;16676;51.202;6.774;2023-04-28T18:29:18;20.20;68.40
29775;DHT22;16676;51.202;6.774;2023-04-28T18:33:22;20.20;68.20
29775;DHT22;16676;51.202;6.774;2023-04-28T18:37:27;20.20;68.50
29775;DHT22;16676;51.202;6.774;2023-04-28T18:41:30;20.20;68.70
29775;DHT22;16676;51.202;6.774;2023-04-28T18:45:33;20.10;68.20
29775;DHT22;16676;51.202;6.774;2023-04-28T18:49:37;20.10;68.40
29775;DHT22;16676;51.202;6.774;2023-04-28T18:53:39;20.10;68.40
29775;DHT22;16676;51.202;6.774;2023-04-28T18:57:41;20.20;67.70
29775;DHT22;16676;51.202;6.774;2023-04-28T19:01:42;20.20;68.70
29775;DHT22;16676;51.202;6.774;2023-04-28T19:05:47;20.20;68.00
29775;DHT22;16676;51.202;6.774;2023-04-28T19:09:49;20.10;68.40
29775;DHT22;16676;51.202;6.774;2023-04-28T19:13:51;20.10;67.70
29775;DHT22;16676;51.202;6.774;2023-04-28T19:17:54;20.00;69.10
29775;DHT22;16676;51.202;6.774;2023-04-28T19:21:57;19.90;69.50
29775;DHT22;16676;51.202;6.774;2023-04-28T19:25:59;19.80;69.20
29775;DHT22;16676;51.202;6.774;2023-04-28T19:30:02;19.70;69.30
29775;DHT22;16676;51.202;6.774;2023-04-28T19:34:04;19.60;68.70
29775;DHT22;16676;51.202;6.774;2023-04-28T19:38:07;19.70;69.30
29775;DHT22;16676;51.202;6.774;2023-04-28T19:42:10;19.70;68.90
29775;DHT22;16676;51.202;6.774;2023-04-28T19:46:12;19.70;69.00
29775;DHT22;16676;51.202;6.774;2023-04-28T19:50:14;19.70;69.00
29775;DHT22;16676;51.202;6.774;2023-04-28T19:54:20;19.60;69.00
29775;DHT22;16676;51.202;6.774;2023-04-28T19:58:23;19.60;69.20
29775;DHT22;16676;51.202;6.774;2023-04-28T20:02:25;19.60;69.10
29775;DHT22;16676;51.202;6.774;2023-04-28T20:06:27;19.60;69.50
29775;DHT22;16676;51.202;6.774;2023-04-28T20:10:30;19.60;69.00
29775;DHT22;16676;51.202;6.774;2023-04-28T20:14:32;19.70;69.10
29775;DHT22;16676;51.202;6.774;2023-04-28T20:18:34;19.60;69.60
29775;DHT22;16676;51.202;6.774;2023-04-28T20:22:37;19.60;69.20
29775;DHT22;16676;51.202;6.774;2023-04-28T20:26:41;19.60;68.70
29775;DHT22;16676;51.202;6.774;2023-04-28T20:30:43;19.60;69.20
29775;DHT22;16676;51.202;6.774;2023-04-28T20:34:45;19.60;69.00
29775;DHT22;16676;51.202;6.774;2023-04-28T20:38:47;19.60;69.60
29775;DHT22;16676;51.202;6.774;2023-04-28T20:42:50;19.60;69.00
29775;DHT22;16676;51.202;6.774;2023-04-28T20:46:52;19.50;69.20
29775;DHT22;16676;51.202;6.774;2023-04-28T20:50:55;19.60;69.30
29775;DHT22;16676;51.202;6.774;2023-04-28T20:54:57;19.60;69.90
29775;DHT22;16676;51.202;6.774;2023-04-28T20:59:01;19.60;69.80
29775;DHT22;16676;51.202;6.774;2023-04-28T21:03:03;19.70;68.40
29775;DHT22;16676;51.202;6.774;2023-04-28T21:07:05;19.80;67.80
29775;DHT22;16676;51.202;6.774;2023-04-28T21:11:10;19.90;68.10
29775;DHT22;16676;51.202;6.774;2023-04-28T21:15:14;19.90;68.10
29775;DHT22;16676;51.202;6.774;2023-04-28T21:19:16;19.90;68.10
29775;DHT22;16676;51.202;6.774;2023-04-28T21:23:18;19.90;68.00
29775;DHT22;16676;51.202;6.774;2023-04-28T21:27:20;19.90;67.70
29775;DHT22;16676;51.202;6.774;2023-04-28T21:31:23;19.90;68.20
29775;DHT22;16676;51.202;6.774;2023-04-28T21:35:26;20.00;68.30
29775;DHT22;16676;51.202;6.774;2023-04-28T21:39:28;19.90;68.70
29775;DHT22;16676;51.202;6.774;2023-04-28T21:43:30;20.00;68.50
29775;DHT22;16676;51.202;6.774;2023-04-28T21:47:33;19.90;68.20
29775;DHT22;16676;51.202;6.774;2023-04-28T21:51:35;20.00;68.10
29775;DHT22;16676;51.202;6.774;2023-04-28T21:55:37;20.00;68.40
29775;DHT22;16676;51.202;6.774;2023-04-28T21:59:39;20.00;68.30
29775;DHT22;16676;51.202;6.774;2023-04-28T22:03:42;20.00;68.40
29775;DHT22;16676;51.202;6.774;2023-04-28T22:07:44;20.00;68.10
29775;DHT22;16676;51.202;6.774;2023-04-28T22:11:47;20.00;68.20
29775;DHT22;16676;51.202;6.774;2023-04-28T22:15:49;20.00;68.20
29775;DHT22;16676;51.202;6.774;2023-04-28T22:19:52;20.00;68.30
29775;DHT22;16676;51.202;6.774;2023-04-28T22:23:55;19.90;68.70
29775;DHT22;16676;51.202;6.774;2023-04-28T22:27:56;19.90;68.50
29775;DHT22;16676;51.202;6.774;2023-04-28T22:31:58;19.90;68.20
29775;DHT22;16676;51.202;6.774;2023-04-28T22:36:04;19.90;68.30
29775;DHT22;16676;51.202;6.774;2023-04-28T22:40:06;19.90;68.40
29775;DHT22;16676;51.202;6.774;2023-04-28T22:44:09;20.00;68.50
29775;DHT22;16676;51.202;6.774;2023-04-28T22:48:10;19.90;68.20
29775;DHT22;16676;51.202;6.774;2023-04-28T22:52:14;19.90;68.30
29775;DHT22;16676;51.202;6.774;2023-04-28T22:56:17;19.90;68.40
29775;DHT22;16676;51.202;6.774;2023-04-28T23:00:19;19.90;68.30
29775;DHT22;16676;51.202;6.774;2023-04-28T23:04:21;19.90;68.50
29775;DHT22;16676;51.202;6.774;2023-04-28T23:08:25;19.90;68.40
29775;DHT22;16676;51.202;6.774;2023-04-28T23:12:27;19.90;68.40
29775;DHT22;16676;51.202;6.774;2023-04-28T23:16:29;19.90;68.40
29775;DHT22;16676;51.202;6.774;2023-04-28T23:20:32;19.90;68.30
29775;DHT22;16676;51.202;6.774;2023-04-28T23:24:35;19.90;68.50
29775;DHT22;16676;51.202;6.774;2023-04-28T23:28:40;19.90;68.70
29775;DHT22;16676;51.202;6.774;2023-04-28T23:32:42;19.80;68.80
29775;DHT22;16676;51.202;6.774;2023-04-28T23:36:45;19.90;68.60
29775;DHT22;16676;51.202;6.774;2023-04-28T23:40:48;19.80;68.60
29775;DHT22;16676;51.202;6.774;2023-04-28T23:44:50;19.90;68.40
29775;DHT22;16676;51.202;6.774;2023-04-28T23:48:52;19.90;68.60
29775;DHT22;16676;51.202;6.774;2023-04-28T23:52:54;19.80;68.70
29775;DHT22;16676;51.202;6.774;2023-04-28T23:56:58;19.90;68.40
